sensor_id;sensor_type;location;lat;lon;timestamp;P1;durP1;ratioP1;P2;durP2;ratioP2
38117;SDS011;23928;47.562;7.508;2022-08-05T00:01:14;2.97;;;1.90;;
38117;SDS011;23928;47.562;7.508;2022-08-05T00:03:47;2.20;;;2.10;;
38117;SDS011;23928;47.562;7.508;2022-08-05T00:06:13;2.20;;;2.00;;
38117;SDS011;23928;47.562;7.508;2022-08-05T00:08:39;3.27;;;1.97;;
38117;SDS011;23928;47.562;7.508;2022-08-05T00:11:05;1.77;;;1.67;;
38117;SDS011;23928;47.562;7.508;2022-08-05T00:13:36;2.43;;;1.70;;
38117;SDS011;23928;47.562;7.508;2022-08-05T00:16:04;1.80;;;1.60;;
38117;SDS011;23928;47.562;7.508;2022-08-05T00:18:30;4.03;;;1.83;;
38117;SDS011;23928;47.562;7.508;2022-08-05T00:20:55;2.80;;;1.67;;
38117;SDS011;23928;47.562;7.508;2022-08-05T00:23:21;2.10;;;2.00;;
38117;SDS011;23928;47.562;7.508;2022-08-05T00:25:48;2.07;;;1.87;;
38117;SDS011;23928;47.562;7.508;2022-08-05T00:28:14;2.03;;;1.83;;
38117;SDS011;23928;47.562;7.508;2022-08-05T00:30:40;1.60;;;1.50;;
38117;SDS011;23928;47.562;7.508;2022-08-05T00:33:06;1.90;;;1.80;;
38117;SDS011;23928;47.562;7.508;2022-08-05T00:35:32;2.30;;;2.10;;
38117;SDS011;23928;47.562;7.508;2022-08-05T00:37:57;3.83;;;2.10;;
38117;SDS011;23928;47.562;7.508;2022-08-05T00:40:24;2.70;;;2.50;;
38117;SDS011;23928;47.562;7.508;2022-08-05T00:42:50;4.23;;;2.17;;
38117;SDS011;23928;47.562;7.508;2022-08-05T00:45:16;2.00;;;1.90;;
38117;SDS011;23928;47.562;7.508;2022-08-05T00:47:42;3.13;;;2.40;;
38117;SDS011;23928;47.562;7.508;2022-08-05T00:50:08;2.00;;;1.90;;
38117;SDS011;23928;47.562;7.508;2022-08-05T00:52:34;2.20;;;2.07;;
38117;SDS011;23928;47.562;7.508;2022-08-05T00:55:00;2.43;;;2.23;;
38117;SDS011;23928;47.562;7.508;2022-08-05T00:57:26;2.63;;;2.07;;
38117;SDS011;23928;47.562;7.508;2022-08-05T00:59:52;2.27;;;2.00;;
38117;SDS011;23928;47.562;7.508;2022-08-05T01:02:17;2.40;;;2.20;;
38117;SDS011;23928;47.562;7.508;2022-08-05T01:04:43;2.10;;;1.90;;
38117;SDS011;23928;47.562;7.508;2022-08-05T01:07:09;2.30;;;2.10;;
38117;SDS011;23928;47.562;7.508;2022-08-05T01:09:34;2.23;;;2.03;;
38117;SDS011;23928;47.562;7.508;2022-08-05T01:12:07;3.83;;;1.93;;
38117;SDS011;23928;47.562;7.508;2022-08-05T01:17:25;5.70;;;2.70;;
38117;SDS011;23928;47.562;7.508;2022-08-05T01:20:18;4.90;;;2.20;;
38117;SDS011;23928;47.562;7.508;2022-08-05T01:28:51;2.67;;;2.47;;
38117;SDS011;23928;47.562;7.508;2022-08-05T01:31:35;2.53;;;2.33;;
38117;SDS011;23928;47.562;7.508;2022-08-05T01:36:49;3.30;;;2.23;;
38117;SDS011;23928;47.562;7.508;2022-08-05T01:39:19;2.83;;;2.47;;
38117;SDS011;23928;47.562;7.508;2022-08-05T01:41:46;2.43;;;2.23;;
38117;SDS011;23928;47.562;7.508;2022-08-05T01:44:14;2.63;;;2.43;;
38117;SDS011;23928;47.562;7.508;2022-08-05T01:46:42;3.30;;;2.60;;
38117;SDS011;23928;47.562;7.508;2022-08-05T01:49:10;3.67;;;2.60;;
38117;SDS011;23928;47.562;7.508;2022-08-05T01:51:39;2.93;;;2.50;;
38117;SDS011;23928;47.562;7.508;2022-08-05T01:54:06;2.50;;;2.30;;
38117;SDS011;23928;47.562;7.508;2022-08-05T01:56:35;2.43;;;2.23;;
38117;SDS011;23928;47.562;7.508;2022-08-05T01:59:05;2.90;;;2.30;;
38117;SDS011;23928;47.562;7.508;2022-08-05T02:01:33;2.73;;;2.47;;
38117;SDS011;23928;47.562;7.508;2022-08-05T02:04:01;2.77;;;2.50;;
38117;SDS011;23928;47.562;7.508;2022-08-05T02:06:29;2.63;;;2.30;;
38117;SDS011;23928;47.562;7.508;2022-08-05T02:08:55;3.40;;;2.20;;
38117;SDS011;23928;47.562;7.508;2022-08-05T02:11:21;2.67;;;2.47;;
38117;SDS011;23928;47.562;7.508;2022-08-05T02:13:55;2.50;;;2.30;;
38117;SDS011;23928;47.562;7.508;2022-08-05T02:19:00;2.83;;;2.00;;
38117;SDS011;23928;47.562;7.508;2022-08-05T02:21:32;2.43;;;2.23;;
38117;SDS011;23928;47.562;7.508;2022-08-05T02:24:03;3.03;;;2.40;;
38117;SDS011;23928;47.562;7.508;2022-08-05T02:26:42;2.30;;;2.20;;
38117;SDS011;23928;47.562;7.508;2022-08-05T02:29:20;2.60;;;2.40;;
38117;SDS011;23928;47.562;7.508;2022-08-05T02:31:48;4.17;;;2.23;;
38117;SDS011;23928;47.562;7.508;2022-08-05T02:34:15;2.97;;;2.40;;
38117;SDS011;23928;47.562;7.508;2022-08-05T02:36:44;3.57;;;2.53;;
38117;SDS011;23928;47.562;7.508;2022-08-05T02:39:16;2.80;;;2.60;;
38117;SDS011;23928;47.562;7.508;2022-08-05T02:41:43;2.80;;;2.43;;
38117;SDS011;23928;47.562;7.508;2022-08-05T02:44:11;3.10;;;2.50;;
38117;SDS011;23928;47.562;7.508;2022-08-05T02:46:38;2.50;;;2.30;;
38117;SDS011;23928;47.562;7.508;2022-08-05T02:49:06;3.33;;;2.60;;
38117;SDS011;23928;47.562;7.508;2022-08-05T02:51:33;2.80;;;2.60;;
38117;SDS011;23928;47.562;7.508;2022-08-05T02:54:00;2.43;;;2.23;;
38117;SDS011;23928;47.562;7.508;2022-08-05T02:56:26;2.83;;;2.30;;
38117;SDS011;23928;47.562;7.508;2022-08-05T02:58:53;3.37;;;2.40;;
38117;SDS011;23928;47.562;7.508;2022-08-05T03:01:22;2.33;;;2.13;;
38117;SDS011;23928;47.562;7.508;2022-08-05T03:03:51;2.50;;;2.30;;
38117;SDS011;23928;47.562;7.508;2022-08-05T03:06:19;2.50;;;2.30;;
38117;SDS011;23928;47.562;7.508;2022-08-05T03:08:45;3.37;;;2.63;;
38117;SDS011;23928;47.562;7.508;2022-08-05T03:11:16;2.83;;;2.10;;
38117;SDS011;23928;47.562;7.508;2022-08-05T03:13:49;2.47;;;2.20;;
38117;SDS011;23928;47.562;7.508;2022-08-05T03:16:16;2.20;;;2.10;;
38117;SDS011;23928;47.562;7.508;2022-08-05T03:18:42;2.90;;;2.70;;
38117;SDS011;23928;47.562;7.508;2022-08-05T03:21:07;2.20;;;2.10;;
38117;SDS011;23928;47.562;7.508;2022-08-05T03:23:33;2.40;;;2.20;;
38117;SDS011;23928;47.562;7.508;2022-08-05T03:26:00;4.13;;;2.50;;
38117;SDS011;23928;47.562;7.508;2022-08-05T03:28:27;3.00;;;2.20;;
38117;SDS011;23928;47.562;7.508;2022-08-05T03:30:53;2.53;;;2.23;;
38117;SDS011;23928;47.562;7.508;2022-08-05T03:33:20;3.70;;;2.33;;
38117;SDS011;23928;47.562;7.508;2022-08-05T03:35:46;2.77;;;2.30;;
38117;SDS011;23928;47.562;7.508;2022-08-05T03:38:13;3.27;;;2.07;;
38117;SDS011;23928;47.562;7.508;2022-08-05T03:40:43;3.63;;;2.10;;
38117;SDS011;23928;47.562;7.508;2022-08-05T03:43:10;3.40;;;2.47;;
38117;SDS011;23928;47.562;7.508;2022-08-05T03:45:37;2.50;;;2.40;;
38117;SDS011;23928;47.562;7.508;2022-08-05T03:48:03;2.23;;;2.13;;
38117;SDS011;23928;47.562;7.508;2022-08-05T03:50:34;3.20;;;2.47;;
38117;SDS011;23928;47.562;7.508;2022-08-05T03:53:13;2.30;;;2.10;;
38117;SDS011;23928;47.562;7.508;2022-08-05T03:55:48;2.73;;;2.53;;
38117;SDS011;23928;47.562;7.508;2022-08-05T03:58:17;3.27;;;2.50;;
38117;SDS011;23928;47.562;7.508;2022-08-05T04:00:48;2.53;;;2.30;;
38117;SDS011;23928;47.562;7.508;2022-08-05T04:03:17;2.90;;;2.70;;
38117;SDS011;23928;47.562;7.508;2022-08-05T04:05:45;2.90;;;2.70;;
38117;SDS011;23928;47.562;7.508;2022-08-05T04:08:12;2.67;;;2.47;;
38117;SDS011;23928;47.562;7.508;2022-08-05T04:10:39;2.40;;;2.20;;
38117;SDS011;23928;47.562;7.508;2022-08-05T04:13:05;2.70;;;2.27;;
38117;SDS011;23928;47.562;7.508;2022-08-05T04:15:32;2.83;;;2.63;;
38117;SDS011;23928;47.562;7.508;2022-08-05T04:18:00;2.77;;;2.47;;
38117;SDS011;23928;47.562;7.508;2022-08-05T04:20:28;2.40;;;2.20;;
38117;SDS011;23928;47.562;7.508;2022-08-05T04:22:54;2.77;;;2.57;;
38117;SDS011;23928;47.562;7.508;2022-08-05T04:25:20;3.17;;;2.47;;
38117;SDS011;23928;47.562;7.508;2022-08-05T04:27:45;2.57;;;2.37;;
38117;SDS011;23928;47.562;7.508;2022-08-05T04:30:11;2.70;;;2.50;;
38117;SDS011;23928;47.562;7.508;2022-08-05T04:32:37;2.80;;;2.50;;
38117;SDS011;23928;47.562;7.508;2022-08-05T04:35:02;3.00;;;2.80;;
38117;SDS011;23928;47.562;7.508;2022-08-05T04:37:28;2.93;;;2.63;;
38117;SDS011;23928;47.562;7.508;2022-08-05T04:39:55;2.87;;;2.20;;
38117;SDS011;23928;47.562;7.508;2022-08-05T04:42:21;3.23;;;2.90;;
38117;SDS011;23928;47.562;7.508;2022-08-05T04:44:46;5.03;;;2.90;;
38117;SDS011;23928;47.562;7.508;2022-08-05T04:47:12;3.27;;;2.87;;
38117;SDS011;23928;47.562;7.508;2022-08-05T04:49:38;2.83;;;2.63;;
38117;SDS011;23928;47.562;7.508;2022-08-05T04:52:04;2.70;;;2.50;;
38117;SDS011;23928;47.562;7.508;2022-08-05T04:54:30;2.60;;;2.40;;
38117;SDS011;23928;47.562;7.508;2022-08-05T04:56:55;3.80;;;3.37;;
38117;SDS011;23928;47.562;7.508;2022-08-05T04:59:21;3.20;;;2.83;;
38117;SDS011;23928;47.562;7.508;2022-08-05T05:01:47;3.73;;;3.20;;
38117;SDS011;23928;47.562;7.508;2022-08-05T05:04:14;4.57;;;2.83;;
38117;SDS011;23928;47.562;7.508;2022-08-05T05:06:39;3.27;;;2.93;;
38117;SDS011;23928;47.562;7.508;2022-08-05T05:09:05;5.07;;;3.30;;
38117;SDS011;23928;47.562;7.508;2022-08-05T05:11:31;4.83;;;3.20;;
38117;SDS011;23928;47.562;7.508;2022-08-05T05:13:56;3.60;;;3.13;;
38117;SDS011;23928;47.562;7.508;2022-08-05T05:16:22;4.83;;;3.10;;
38117;SDS011;23928;47.562;7.508;2022-08-05T05:18:48;4.33;;;3.13;;
38117;SDS011;23928;47.562;7.508;2022-08-05T05:21:13;3.50;;;3.20;;
38117;SDS011;23928;47.562;7.508;2022-08-05T05:23:39;3.90;;;3.40;;
38117;SDS011;23928;47.562;7.508;2022-08-05T05:26:05;6.30;;;3.17;;
38117;SDS011;23928;47.562;7.508;2022-08-05T05:28:30;5.47;;;3.30;;
38117;SDS011;23928;47.562;7.508;2022-08-05T05:30:56;4.63;;;3.57;;
38117;SDS011;23928;47.562;7.508;2022-08-05T05:33:22;3.70;;;3.40;;
38117;SDS011;23928;47.562;7.508;2022-08-05T05:35:47;3.70;;;3.40;;
38117;SDS011;23928;47.562;7.508;2022-08-05T05:38:14;3.33;;;3.03;;
38117;SDS011;23928;47.562;7.508;2022-08-05T05:40:40;3.13;;;2.83;;
38117;SDS011;23928;47.562;7.508;2022-08-05T05:43:07;2.83;;;2.63;;
38117;SDS011;23928;47.562;7.508;2022-08-05T05:45:33;5.70;;;2.87;;
38117;SDS011;23928;47.562;7.508;2022-08-05T05:47:58;3.33;;;3.00;;
38117;SDS011;23928;47.562;7.508;2022-08-05T05:50:24;5.03;;;2.80;;
38117;SDS011;23928;47.562;7.508;2022-08-05T05:52:50;3.37;;;2.87;;
38117;SDS011;23928;47.562;7.508;2022-08-05T05:55:16;3.30;;;3.00;;
38117;SDS011;23928;47.562;7.508;2022-08-05T05:57:43;5.13;;;3.00;;
38117;SDS011;23928;47.562;7.508;2022-08-05T06:00:11;3.30;;;2.90;;
38117;SDS011;23928;47.562;7.508;2022-08-05T06:02:44;3.90;;;3.00;;
38117;SDS011;23928;47.562;7.508;2022-08-05T06:05:12;4.67;;;2.67;;
38117;SDS011;23928;47.562;7.508;2022-08-05T06:07:39;4.53;;;2.70;;
38117;SDS011;23928;47.562;7.508;2022-08-05T06:10:06;3.43;;;2.60;;
38117;SDS011;23928;47.562;7.508;2022-08-05T06:12:33;3.60;;;2.63;;
38117;SDS011;23928;47.562;7.508;2022-08-05T06:15:00;3.27;;;2.83;;
38117;SDS011;23928;47.562;7.508;2022-08-05T06:17:26;3.57;;;2.50;;
38117;SDS011;23928;47.562;7.508;2022-08-05T06:19:52;4.67;;;2.40;;
38117;SDS011;23928;47.562;7.508;2022-08-05T06:22:24;7.57;;;3.00;;
38117;SDS011;23928;47.562;7.508;2022-08-05T06:24:56;3.23;;;2.80;;
38117;SDS011;23928;47.562;7.508;2022-08-05T06:27:22;3.20;;;2.40;;
38117;SDS011;23928;47.562;7.508;2022-08-05T06:29:48;4.53;;;2.50;;
38117;SDS011;23928;47.562;7.508;2022-08-05T06:32:14;6.80;;;2.50;;
38117;SDS011;23928;47.562;7.508;2022-08-05T06:34:40;4.60;;;2.50;;
38117;SDS011;23928;47.562;7.508;2022-08-05T06:37:06;5.23;;;2.70;;
38117;SDS011;23928;47.562;7.508;2022-08-05T06:39:31;3.57;;;2.50;;
38117;SDS011;23928;47.562;7.508;2022-08-05T06:41:57;4.43;;;2.67;;
38117;SDS011;23928;47.562;7.508;2022-08-05T06:44:27;4.70;;;2.57;;
38117;SDS011;23928;47.562;7.508;2022-08-05T06:46:53;8.13;;;2.60;;
38117;SDS011;23928;47.562;7.508;2022-08-05T06:49:19;3.07;;;2.77;;
38117;SDS011;23928;47.562;7.508;2022-08-05T06:51:45;4.30;;;2.60;;
38117;SDS011;23928;47.562;7.508;2022-08-05T06:54:11;4.00;;;2.20;;
38117;SDS011;23928;47.562;7.508;2022-08-05T06:56:37;6.37;;;2.40;;
38117;SDS011;23928;47.562;7.508;2022-08-05T06:59:03;4.37;;;2.23;;
38117;SDS011;23928;47.562;7.508;2022-08-05T07:01:29;5.43;;;2.40;;
38117;SDS011;23928;47.562;7.508;2022-08-05T07:03:55;4.60;;;2.10;;
38117;SDS011;23928;47.562;7.508;2022-08-05T07:06:21;4.93;;;2.67;;
38117;SDS011;23928;47.562;7.508;2022-08-05T07:08:47;4.37;;;2.73;;
38117;SDS011;23928;47.562;7.508;2022-08-05T07:11:13;2.33;;;2.13;;
38117;SDS011;23928;47.562;7.508;2022-08-05T07:13:39;3.90;;;2.30;;
38117;SDS011;23928;47.562;7.508;2022-08-05T07:16:23;7.40;;;2.50;;
38117;SDS011;23928;47.562;7.508;2022-08-05T07:19:07;4.87;;;2.40;;
38117;SDS011;23928;47.562;7.508;2022-08-05T07:21:33;2.17;;;2.03;;
38117;SDS011;23928;47.562;7.508;2022-08-05T07:23:58;3.87;;;2.07;;
38117;SDS011;23928;47.562;7.508;2022-08-05T07:26:24;4.37;;;2.20;;
38117;SDS011;23928;47.562;7.508;2022-08-05T07:28:50;2.77;;;2.30;;
38117;SDS011;23928;47.562;7.508;2022-08-05T07:31:16;2.80;;;2.30;;
38117;SDS011;23928;47.562;7.508;2022-08-05T07:33:42;2.90;;;2.00;;
38117;SDS011;23928;47.562;7.508;2022-08-05T07:36:08;3.83;;;2.33;;
38117;SDS011;23928;47.562;7.508;2022-08-05T07:38:34;4.00;;;2.30;;
38117;SDS011;23928;47.562;7.508;2022-08-05T07:41:06;1.90;;;1.80;;
38117;SDS011;23928;47.562;7.508;2022-08-05T07:43:33;2.30;;;2.10;;
38117;SDS011;23928;47.562;7.508;2022-08-05T07:45:58;2.90;;;2.10;;
38117;SDS011;23928;47.562;7.508;2022-08-05T07:48:24;3.00;;;2.20;;
38117;SDS011;23928;47.562;7.508;2022-08-05T07:50:50;3.40;;;2.00;;
38117;SDS011;23928;47.562;7.508;2022-08-05T07:53:15;2.40;;;2.17;;
38117;SDS011;23928;47.562;7.508;2022-08-05T07:55:41;2.30;;;2.10;;
38117;SDS011;23928;47.562;7.508;2022-08-05T07:58:07;3.63;;;2.03;;
38117;SDS011;23928;47.562;7.508;2022-08-05T08:00:32;4.97;;;2.43;;
38117;SDS011;23928;47.562;7.508;2022-08-05T08:02:58;4.90;;;2.33;;
38117;SDS011;23928;47.562;7.508;2022-08-05T08:05:24;5.00;;;2.07;;
38117;SDS011;23928;47.562;7.508;2022-08-05T08:07:50;2.10;;;1.90;;
38117;SDS011;23928;47.562;7.508;2022-08-05T08:10:16;3.67;;;2.10;;
38117;SDS011;23928;47.562;7.508;2022-08-05T08:12:41;5.50;;;2.23;;
38117;SDS011;23928;47.562;7.508;2022-08-05T08:15:08;3.27;;;2.33;;
38117;SDS011;23928;47.562;7.508;2022-08-05T08:17:35;2.60;;;1.93;;
38117;SDS011;23928;47.562;7.508;2022-08-05T08:20:00;2.20;;;2.00;;
38117;SDS011;23928;47.562;7.508;2022-08-05T08:22:29;2.77;;;2.17;;
38117;SDS011;23928;47.562;7.508;2022-08-05T08:24:55;2.40;;;2.20;;
38117;SDS011;23928;47.562;7.508;2022-08-05T08:27:21;4.00;;;2.30;;
38117;SDS011;23928;47.562;7.508;2022-08-05T08:29:47;3.60;;;2.20;;
38117;SDS011;23928;47.562;7.508;2022-08-05T08:32:12;3.23;;;2.50;;
38117;SDS011;23928;47.562;7.508;2022-08-05T08:34:38;2.20;;;2.03;;
38117;SDS011;23928;47.562;7.508;2022-08-05T08:37:04;2.87;;;2.13;;
38117;SDS011;23928;47.562;7.508;2022-08-05T08:39:29;3.03;;;2.20;;
38117;SDS011;23928;47.562;7.508;2022-08-05T08:41:55;2.33;;;2.13;;
38117;SDS011;23928;47.562;7.508;2022-08-05T08:44:24;4.50;;;2.27;;
38117;SDS011;23928;47.562;7.508;2022-08-05T08:46:52;3.90;;;2.37;;
38117;SDS011;23928;47.562;7.508;2022-08-05T08:49:20;3.27;;;2.30;;
38117;SDS011;23928;47.562;7.508;2022-08-05T08:51:49;4.83;;;2.50;;
38117;SDS011;23928;47.562;7.508;2022-08-05T08:54:38;3.23;;;2.50;;
38117;SDS011;23928;47.562;7.508;2022-08-05T08:57:04;2.50;;;2.27;;
38117;SDS011;23928;47.562;7.508;2022-08-05T08:59:31;3.10;;;2.07;;
38117;SDS011;23928;47.562;7.508;2022-08-05T09:01:57;3.00;;;2.40;;
38117;SDS011;23928;47.562;7.508;2022-08-05T09:04:25;4.13;;;2.20;;
38117;SDS011;23928;47.562;7.508;2022-08-05T09:06:51;4.10;;;2.53;;
38117;SDS011;23928;47.562;7.508;2022-08-05T09:09:17;5.67;;;2.30;;
38117;SDS011;23928;47.562;7.508;2022-08-05T09:11:42;5.53;;;2.23;;
38117;SDS011;23928;47.562;7.508;2022-08-05T09:14:09;4.87;;;2.60;;
38117;SDS011;23928;47.562;7.508;2022-08-05T09:16:37;3.00;;;2.30;;
38117;SDS011;23928;47.562;7.508;2022-08-05T09:19:03;4.57;;;2.57;;
38117;SDS011;23928;47.562;7.508;2022-08-05T09:21:29;3.60;;;2.20;;
38117;SDS011;23928;47.562;7.508;2022-08-05T09:24:05;8.17;;;2.40;;
38117;SDS011;23928;47.562;7.508;2022-08-05T09:26:34;5.93;;;2.80;;
38117;SDS011;23928;47.562;7.508;2022-08-05T09:29:02;2.63;;;2.40;;
38117;SDS011;23928;47.562;7.508;2022-08-05T09:31:30;4.13;;;2.47;;
38117;SDS011;23928;47.562;7.508;2022-08-05T09:33:57;4.23;;;2.40;;
38117;SDS011;23928;47.562;7.508;2022-08-05T09:39:07;5.20;;;2.20;;
38117;SDS011;23928;47.562;7.508;2022-08-05T09:41:40;5.07;;;2.70;;
38117;SDS011;23928;47.562;7.508;2022-08-05T09:44:36;5.90;;;2.60;;
38117;SDS011;23928;47.562;7.508;2022-08-05T09:47:07;4.20;;;2.80;;
38117;SDS011;23928;47.562;7.508;2022-08-05T09:49:34;2.60;;;2.40;;
38117;SDS011;23928;47.562;7.508;2022-08-05T09:52:21;2.60;;;2.40;;
38117;SDS011;23928;47.562;7.508;2022-08-05T09:57:35;7.57;;;2.30;;
38117;SDS011;23928;47.562;7.508;2022-08-05T10:00:06;4.20;;;2.40;;
38117;SDS011;23928;47.562;7.508;2022-08-05T10:02:43;2.73;;;2.20;;
38117;SDS011;23928;47.562;7.508;2022-08-05T10:05:23;3.23;;;2.17;;
38117;SDS011;23928;47.562;7.508;2022-08-05T10:07:52;3.63;;;2.50;;
38117;SDS011;23928;47.562;7.508;2022-08-05T10:10:20;2.87;;;2.40;;
38117;SDS011;23928;47.562;7.508;2022-08-05T10:12:52;2.90;;;2.30;;
38117;SDS011;23928;47.562;7.508;2022-08-05T10:15:27;2.17;;;2.03;;
38117;SDS011;23928;47.562;7.508;2022-08-05T10:18:07;14.67;;;2.90;;
38117;SDS011;23928;47.562;7.508;2022-08-05T10:20:44;3.37;;;2.80;;
38117;SDS011;23928;47.562;7.508;2022-08-05T10:23:12;3.07;;;2.27;;
38117;SDS011;23928;47.562;7.508;2022-08-05T10:25:49;3.50;;;2.63;;
38117;SDS011;23928;47.562;7.508;2022-08-05T10:28:15;5.70;;;2.50;;
38117;SDS011;23928;47.562;7.508;2022-08-05T10:30:42;2.53;;;2.33;;
38117;SDS011;23928;47.562;7.508;2022-08-05T10:33:08;3.40;;;2.13;;
38117;SDS011;23928;47.562;7.508;2022-08-05T10:35:34;4.27;;;2.17;;
38117;SDS011;23928;47.562;7.508;2022-08-05T10:38:01;3.23;;;2.50;;
38117;SDS011;23928;47.562;7.508;2022-08-05T10:40:38;2.50;;;2.27;;
38117;SDS011;23928;47.562;7.508;2022-08-05T10:46:13;4.83;;;2.50;;
38117;SDS011;23928;47.562;7.508;2022-08-05T10:48:42;2.40;;;2.20;;
38117;SDS011;23928;47.562;7.508;2022-08-05T10:51:15;3.50;;;2.37;;
38117;SDS011;23928;47.562;7.508;2022-08-05T10:53:43;2.73;;;2.53;;
38117;SDS011;23928;47.562;7.508;2022-08-05T10:56:19;2.73;;;2.27;;
38117;SDS011;23928;47.562;7.508;2022-08-05T10:58:48;8.27;;;3.10;;
38117;SDS011;23928;47.562;7.508;2022-08-05T11:01:41;8.97;;;3.17;;
38117;SDS011;23928;47.562;7.508;2022-08-05T11:04:20;8.03;;;3.07;;
38117;SDS011;23928;47.562;7.508;2022-08-05T11:09:22;7.90;;;3.00;;
38117;SDS011;23928;47.562;7.508;2022-08-05T11:11:49;5.70;;;2.77;;
38117;SDS011;23928;47.562;7.508;2022-08-05T11:19:58;8.87;;;3.47;;
38117;SDS011;23928;47.562;7.508;2022-08-05T11:33:25;5.20;;;2.40;;
38117;SDS011;23928;47.562;7.508;2022-08-05T11:41:04;3.27;;;2.27;;
38117;SDS011;23928;47.562;7.508;2022-08-05T11:43:30;4.70;;;2.60;;
38117;SDS011;23928;47.562;7.508;2022-08-05T11:45:57;3.37;;;2.30;;
38117;SDS011;23928;47.562;7.508;2022-08-05T11:48:23;2.50;;;2.20;;
38117;SDS011;23928;47.562;7.508;2022-08-05T11:50:50;2.70;;;2.07;;
38117;SDS011;23928;47.562;7.508;2022-08-05T11:53:17;5.10;;;2.20;;
38117;SDS011;23928;47.562;7.508;2022-08-05T11:55:56;2.10;;;1.90;;
38117;SDS011;23928;47.562;7.508;2022-08-05T11:58:24;4.57;;;2.50;;
38117;SDS011;23928;47.562;7.508;2022-08-05T12:01:13;3.60;;;2.47;;
38117;SDS011;23928;47.562;7.508;2022-08-05T12:03:54;3.47;;;2.33;;
38117;SDS011;23928;47.562;7.508;2022-08-05T12:06:22;3.43;;;2.43;;
38117;SDS011;23928;47.562;7.508;2022-08-05T12:13:56;4.43;;;2.77;;
38117;SDS011;23928;47.562;7.508;2022-08-05T12:16:27;3.60;;;2.30;;
38117;SDS011;23928;47.562;7.508;2022-08-05T12:18:58;2.70;;;2.50;;
38117;SDS011;23928;47.562;7.508;2022-08-05T12:21:25;3.20;;;2.63;;
38117;SDS011;23928;47.562;7.508;2022-08-05T12:24:14;4.57;;;2.42;;
38117;SDS011;23928;47.562;7.508;2022-08-05T12:26:42;4.45;;;2.13;;
38117;SDS011;23928;47.562;7.508;2022-08-05T12:29:21;2.45;;;2.25;;
38117;SDS011;23928;47.562;7.508;2022-08-05T12:31:52;3.20;;;2.38;;
38117;SDS011;23928;47.562;7.508;2022-08-05T12:34:21;2.40;;;2.20;;
38117;SDS011;23928;47.562;7.508;2022-08-05T12:36:52;2.75;;;2.50;;
38117;SDS011;23928;47.562;7.508;2022-08-05T12:39:20;2.45;;;2.25;;
38117;SDS011;23928;47.562;7.508;2022-08-05T12:41:47;3.13;;;2.42;;
38117;SDS011;23928;47.562;7.508;2022-08-05T12:44:13;5.53;;;2.13;;
38117;SDS011;23928;47.562;7.508;2022-08-05T12:46:41;2.47;;;2.28;;
38117;SDS011;23928;47.562;7.508;2022-08-05T12:49:15;4.88;;;2.72;;
38117;SDS011;23928;47.562;7.508;2022-08-05T12:51:52;7.78;;;2.10;;
38117;SDS011;23928;47.562;7.508;2022-08-05T12:54:24;2.88;;;2.08;;
38117;SDS011;23928;47.562;7.508;2022-08-05T12:57:00;3.47;;;2.35;;
38117;SDS011;23928;47.562;7.508;2022-08-05T12:59:44;3.65;;;2.30;;
38117;SDS011;23928;47.562;7.508;2022-08-05T13:02:11;3.97;;;2.25;;
38117;SDS011;23928;47.562;7.508;2022-08-05T13:04:41;3.17;;;2.15;;
38117;SDS011;23928;47.562;7.508;2022-08-05T13:07:12;3.83;;;2.20;;
38117;SDS011;23928;47.562;7.508;2022-08-05T13:09:40;3.08;;;2.42;;
38117;SDS011;23928;47.562;7.508;2022-08-05T13:12:12;3.97;;;2.25;;
38117;SDS011;23928;47.562;7.508;2022-08-05T13:14:49;2.67;;;2.22;;
38117;SDS011;23928;47.562;7.508;2022-08-05T13:22:49;2.50;;;2.30;;
38117;SDS011;23928;47.562;7.508;2022-08-05T13:25:17;3.97;;;2.60;;
38117;SDS011;23928;47.562;7.508;2022-08-05T13:27:47;2.53;;;2.33;;
38117;SDS011;23928;47.562;7.508;2022-08-05T13:30:21;3.53;;;2.40;;
38117;SDS011;23928;47.562;7.508;2022-08-05T13:32:49;3.08;;;2.50;;
38117;SDS011;23928;47.562;7.508;2022-08-05T13:35:15;4.65;;;2.40;;
38117;SDS011;23928;47.562;7.508;2022-08-05T13:37:45;4.03;;;2.50;;
38117;SDS011;23928;47.562;7.508;2022-08-05T13:40:11;5.32;;;2.30;;
38117;SDS011;23928;47.562;7.508;2022-08-05T13:42:38;6.38;;;2.70;;
38117;SDS011;23928;47.562;7.508;2022-08-05T13:45:03;2.60;;;2.10;;
38117;SDS011;23928;47.562;7.508;2022-08-05T13:47:31;3.25;;;2.65;;
38117;SDS011;23928;47.562;7.508;2022-08-05T13:49:58;3.45;;;2.75;;
38117;SDS011;23928;47.562;7.508;2022-08-05T13:52:25;2.38;;;2.20;;
38117;SDS011;23928;47.562;7.508;2022-08-05T13:54:51;2.55;;;2.35;;
38117;SDS011;23928;47.562;7.508;2022-08-05T13:57:18;7.30;;;2.67;;
38117;SDS011;23928;47.562;7.508;2022-08-05T13:59:44;3.88;;;2.38;;
38117;SDS011;23928;47.562;7.508;2022-08-05T14:02:11;2.63;;;2.42;;
38117;SDS011;23928;47.562;7.508;2022-08-05T14:04:38;3.42;;;2.58;;
38117;SDS011;23928;47.562;7.508;2022-08-05T14:07:24;4.85;;;2.33;;
38117;SDS011;23928;47.562;7.508;2022-08-05T14:09:54;6.65;;;2.55;;
38117;SDS011;23928;47.562;7.508;2022-08-05T14:12:19;2.50;;;2.30;;
38117;SDS011;23928;47.562;7.508;2022-08-05T14:14:45;3.83;;;2.60;;
38117;SDS011;23928;47.562;7.508;2022-08-05T14:17:11;3.58;;;2.47;;
38117;SDS011;23928;47.562;7.508;2022-08-05T14:19:38;2.83;;;2.50;;
38117;SDS011;23928;47.562;7.508;2022-08-05T14:22:04;5.70;;;2.42;;
38117;SDS011;23928;47.562;7.508;2022-08-05T14:24:30;4.13;;;2.40;;
38117;SDS011;23928;47.562;7.508;2022-08-05T14:26:55;3.80;;;2.35;;
38117;SDS011;23928;47.562;7.508;2022-08-05T14:29:21;3.58;;;2.50;;
38117;SDS011;23928;47.562;7.508;2022-08-05T14:31:47;2.63;;;2.42;;
38117;SDS011;23928;47.562;7.508;2022-08-05T14:34:12;2.42;;;2.22;;
38117;SDS011;23928;47.562;7.508;2022-08-05T14:36:38;2.50;;;2.30;;
38117;SDS011;23928;47.562;7.508;2022-08-05T14:39:04;2.42;;;2.22;;
38117;SDS011;23928;47.562;7.508;2022-08-05T14:41:30;3.55;;;2.50;;
38117;SDS011;23928;47.562;7.508;2022-08-05T14:43:56;3.22;;;2.28;;
38117;SDS011;23928;47.562;7.508;2022-08-05T14:46:22;3.35;;;2.53;;
38117;SDS011;23928;47.562;7.508;2022-08-05T14:48:49;2.60;;;2.40;;
38117;SDS011;23928;47.562;7.508;2022-08-05T14:51:14;2.50;;;2.30;;
38117;SDS011;23928;47.562;7.508;2022-08-05T14:53:40;4.63;;;2.53;;
38117;SDS011;23928;47.562;7.508;2022-08-05T14:56:06;4.15;;;2.00;;
38117;SDS011;23928;47.562;7.508;2022-08-05T14:58:32;2.20;;;2.00;;
38117;SDS011;23928;47.562;7.508;2022-08-05T15:00:57;2.45;;;2.20;;
38117;SDS011;23928;47.562;7.508;2022-08-05T15:03:23;3.45;;;2.10;;
38117;SDS011;23928;47.562;7.508;2022-08-05T15:05:48;2.55;;;2.35;;
38117;SDS011;23928;47.562;7.508;2022-08-05T15:08:14;2.63;;;2.28;;
38117;SDS011;23928;47.562;7.508;2022-08-05T15:10:40;3.53;;;2.30;;
38117;SDS011;23928;47.562;7.508;2022-08-05T15:13:07;2.58;;;2.25;;
38117;SDS011;23928;47.562;7.508;2022-08-05T15:15:33;3.38;;;2.50;;
38117;SDS011;23928;47.562;7.508;2022-08-05T15:17:59;4.05;;;2.40;;
38117;SDS011;23928;47.562;7.508;2022-08-05T15:20:24;2.53;;;2.33;;
38117;SDS011;23928;47.562;7.508;2022-08-05T15:22:50;4.22;;;2.38;;
38117;SDS011;23928;47.562;7.508;2022-08-05T15:25:16;2.42;;;2.20;;
38117;SDS011;23928;47.562;7.508;2022-08-05T15:27:42;3.10;;;2.10;;
38117;SDS011;23928;47.562;7.508;2022-08-05T15:30:08;2.45;;;2.00;;
38117;SDS011;23928;47.562;7.508;2022-08-05T15:32:35;2.25;;;2.00;;
38117;SDS011;23928;47.562;7.508;2022-08-05T15:35:01;2.47;;;2.20;;
38117;SDS011;23928;47.562;7.508;2022-08-05T15:37:27;3.42;;;2.38;;
38117;SDS011;23928;47.562;7.508;2022-08-05T15:39:52;3.25;;;2.03;;
38117;SDS011;23928;47.562;7.508;2022-08-05T15:42:20;2.47;;;2.00;;
38117;SDS011;23928;47.562;7.508;2022-08-05T15:44:47;2.47;;;2.28;;
38117;SDS011;23928;47.562;7.508;2022-08-05T15:47:13;3.33;;;2.25;;
38117;SDS011;23928;47.562;7.508;2022-08-05T15:49:39;2.38;;;2.08;;
38117;SDS011;23928;47.562;7.508;2022-08-05T15:52:04;3.50;;;2.60;;